sensor_id;sensor_type;location;lat;lon;timestamp;P1;durP1;ratioP1;P2;durP2;ratioP2
52041;SDS011;38052;45.944;13.624;2023-07-29T00:00:00;5.88;;;1.70;;
52041;SDS011;38052;45.944;13.624;2023-07-29T00:02:27;4.18;;;2.38;;
52041;SDS011;38052;45.944;13.624;2023-07-29T00:04:55;6.10;;;1.77;;
52041;SDS011;38052;45.944;13.624;2023-07-29T00:07:22;5.00;;;1.98;;
52041;SDS011;38052;45.944;13.624;2023-07-29T00:09:48;5.68;;;2.25;;
52041;SDS011;38052;45.944;13.624;2023-07-29T00:12:15;5.75;;;1.77;;
52041;SDS011;38052;45.944;13.624;2023-07-29T00:14:42;4.78;;;1.88;;
52041;SDS011;38052;45.944;13.624;2023-07-29T00:17:08;6.10;;;2.55;;
52041;SDS011;38052;45.944;13.624;2023-07-29T00:19:35;7.47;;;2.08;;
52041;SDS011;38052;45.944;13.624;2023-07-29T00:22:01;3.08;;;2.25;;
52041;SDS011;38052;45.944;13.624;2023-07-29T00:24:28;4.28;;;1.77;;
52041;SDS011;38052;45.944;13.624;2023-07-29T00:26:55;5.55;;;1.70;;
52041;SDS011;38052;45.944;13.624;2023-07-29T00:29:22;3.95;;;1.60;;
52041;SDS011;38052;45.944;13.624;2023-07-29T00:31:49;2.83;;;2.05;;
52041;SDS011;38052;45.944;13.624;2023-07-29T00:34:15;4.03;;;1.60;;
52041;SDS011;38052;45.944;13.624;2023-07-29T00:36:44;8.25;;;2.08;;
52041;SDS011;38052;45.944;13.624;2023-07-29T00:39:11;4.13;;;1.85;;
52041;SDS011;38052;45.944;13.624;2023-07-29T00:41:37;2.70;;;1.75;;
52041;SDS011;38052;45.944;13.624;2023-07-29T00:44:04;4.00;;;1.75;;
52041;SDS011;38052;45.944;13.624;2023-07-29T00:46:30;2.63;;;1.40;;
52041;SDS011;38052;45.944;13.624;2023-07-29T00:48:57;5.63;;;1.80;;
52041;SDS011;38052;45.944;13.624;2023-07-29T00:51:24;6.63;;;1.92;;
52041;SDS011;38052;45.944;13.624;2023-07-29T00:53:50;4.03;;;1.90;;
52041;SDS011;38052;45.944;13.624;2023-07-29T00:56:17;2.92;;;1.50;;
52041;SDS011;38052;45.944;13.624;2023-07-29T00:58:44;4.63;;;1.90;;
52041;SDS011;38052;45.944;13.624;2023-07-29T01:01:10;4.72;;;1.65;;
52041;SDS011;38052;45.944;13.624;2023-07-29T01:03:36;6.28;;;2.00;;
52041;SDS011;38052;45.944;13.624;2023-07-29T01:06:12;2.85;;;2.00;;
52041;SDS011;38052;45.944;13.624;2023-07-29T01:08:49;4.70;;;2.13;;
52041;SDS011;38052;45.944;13.624;2023-07-29T01:11:22;2.30;;;1.83;;
52041;SDS011;38052;45.944;13.624;2023-07-29T01:13:58;4.72;;;1.40;;
52041;SDS011;38052;45.944;13.624;2023-07-29T01:16:31;5.53;;;2.13;;
52041;SDS011;38052;45.944;13.624;2023-07-29T01:19:00;3.75;;;1.70;;
52041;SDS011;38052;45.944;13.624;2023-07-29T01:21:31;4.03;;;1.52;;
52041;SDS011;38052;45.944;13.624;2023-07-29T01:23:59;4.78;;;2.00;;
52041;SDS011;38052;45.944;13.624;2023-07-29T01:26:26;4.43;;;1.50;;
52041;SDS011;38052;45.944;13.624;2023-07-29T01:28:54;10.25;;;2.17;;
52041;SDS011;38052;45.944;13.624;2023-07-29T01:31:27;6.00;;;2.28;;
52041;SDS011;38052;45.944;13.624;2023-07-29T01:34:08;3.22;;;1.95;;
52041;SDS011;38052;45.944;13.624;2023-07-29T01:36:35;4.00;;;1.70;;
52041;SDS011;38052;45.944;13.624;2023-07-29T01:39:05;6.07;;;1.95;;
52041;SDS011;38052;45.944;13.624;2023-07-29T01:41:33;3.00;;;2.03;;
52041;SDS011;38052;45.944;13.624;2023-07-29T01:44:00;7.68;;;2.42;;
52041;SDS011;38052;45.944;13.624;2023-07-29T01:46:27;5.82;;;2.10;;
52041;SDS011;38052;45.944;13.624;2023-07-29T01:48:53;4.22;;;1.80;;
52041;SDS011;38052;45.944;13.624;2023-07-29T01:51:20;5.88;;;2.50;;
52041;SDS011;38052;45.944;13.624;2023-07-29T01:53:46;4.00;;;1.50;;
52041;SDS011;38052;45.944;13.624;2023-07-29T01:56:13;12.07;;;2.08;;
52041;SDS011;38052;45.944;13.624;2023-07-29T01:58:39;4.90;;;1.75;;
52041;SDS011;38052;45.944;13.624;2023-07-29T02:01:05;4.22;;;1.52;;
52041;SDS011;38052;45.944;13.624;2023-07-29T02:03:32;4.88;;;2.28;;
52041;SDS011;38052;45.944;13.624;2023-07-29T02:05:58;3.78;;;1.73;;
52041;SDS011;38052;45.944;13.624;2023-07-29T02:08:25;4.63;;;2.08;;
52041;SDS011;38052;45.944;13.624;2023-07-29T02:10:52;3.65;;;1.75;;
52041;SDS011;38052;45.944;13.624;2023-07-29T02:13:19;4.40;;;2.00;;
52041;SDS011;38052;45.944;13.624;2023-07-29T02:15:45;4.43;;;1.63;;
52041;SDS011;38052;45.944;13.624;2023-07-29T02:18:11;3.97;;;1.85;;
52041;SDS011;38052;45.944;13.624;2023-07-29T02:20:38;7.88;;;1.60;;
52041;SDS011;38052;45.944;13.624;2023-07-29T02:23:05;3.22;;;1.60;;
52041;SDS011;38052;45.944;13.624;2023-07-29T02:25:34;3.67;;;1.90;;
52041;SDS011;38052;45.944;13.624;2023-07-29T02:28:01;11.07;;;2.90;;
52041;SDS011;38052;45.944;13.624;2023-07-29T02:30:28;3.53;;;1.98;;
52041;SDS011;38052;45.944;13.624;2023-07-29T02:32:55;5.47;;;1.98;;
52041;SDS011;38052;45.944;13.624;2023-07-29T02:35:21;7.63;;;2.15;;
52041;SDS011;38052;45.944;13.624;2023-07-29T02:37:48;6.57;;;2.00;;
52041;SDS011;38052;45.944;13.624;2023-07-29T02:40:15;4.50;;;2.28;;
52041;SDS011;38052;45.944;13.624;2023-07-29T02:42:41;8.63;;;2.78;;
52041;SDS011;38052;45.944;13.624;2023-07-29T02:45:07;5.03;;;2.33;;
52041;SDS011;38052;45.944;13.624;2023-07-29T02:47:36;6.03;;;2.38;;
52041;SDS011;38052;45.944;13.624;2023-07-29T02:50:03;4.53;;;2.28;;
52041;SDS011;38052;45.944;13.624;2023-07-29T02:52:29;7.75;;;2.90;;
52041;SDS011;38052;45.944;13.624;2023-07-29T02:54:56;5.70;;;2.85;;
52041;SDS011;38052;45.944;13.624;2023-07-29T02:57:23;7.50;;;2.75;;
52041;SDS011;38052;45.944;13.624;2023-07-29T02:59:49;4.47;;;2.80;;
52041;SDS011;38052;45.944;13.624;2023-07-29T03:02:16;5.75;;;2.55;;
52041;SDS011;38052;45.944;13.624;2023-07-29T03:04:43;6.05;;;3.15;;
52041;SDS011;38052;45.944;13.624;2023-07-29T03:07:09;6.47;;;3.17;;
52041;SDS011;38052;45.944;13.624;2023-07-29T03:09:36;6.10;;;3.72;;
52041;SDS011;38052;45.944;13.624;2023-07-29T03:12:02;7.07;;;3.95;;
52041;SDS011;38052;45.944;13.624;2023-07-29T03:14:29;5.80;;;4.13;;
52041;SDS011;38052;45.944;13.624;2023-07-29T03:16:56;6.53;;;2.88;;
52041;SDS011;38052;45.944;13.624;2023-07-29T03:19:23;6.70;;;3.47;;
52041;SDS011;38052;45.944;13.624;2023-07-29T03:21:50;5.10;;;2.80;;
52041;SDS011;38052;45.944;13.624;2023-07-29T03:24:16;4.65;;;2.75;;
52041;SDS011;38052;45.944;13.624;2023-07-29T03:26:43;4.40;;;3.10;;
52041;SDS011;38052;45.944;13.624;2023-07-29T03:29:09;2.92;;;2.35;;
52041;SDS011;38052;45.944;13.624;2023-07-29T03:31:37;7.45;;;3.70;;
52041;SDS011;38052;45.944;13.624;2023-07-29T03:34:03;5.90;;;3.72;;
52041;SDS011;38052;45.944;13.624;2023-07-29T03:36:30;6.97;;;3.15;;
52041;SDS011;38052;45.944;13.624;2023-07-29T03:38:56;6.28;;;3.17;;
52041;SDS011;38052;45.944;13.624;2023-07-29T03:41:23;4.32;;;3.42;;
52041;SDS011;38052;45.944;13.624;2023-07-29T03:43:50;6.53;;;2.97;;
52041;SDS011;38052;45.944;13.624;2023-07-29T03:46:16;9.15;;;4.25;;
52041;SDS011;38052;45.944;13.624;2023-07-29T03:48:44;6.50;;;3.35;;
52041;SDS011;38052;45.944;13.624;2023-07-29T03:51:11;6.93;;;4.20;;
52041;SDS011;38052;45.944;13.624;2023-07-29T03:53:37;8.50;;;3.30;;
52041;SDS011;38052;45.944;13.624;2023-07-29T03:56:04;7.38;;;3.60;;
52041;SDS011;38052;45.944;13.624;2023-07-29T03:58:31;6.03;;;5.13;;
52041;SDS011;38052;45.944;13.624;2023-07-29T04:00:57;6.82;;;3.35;;
52041;SDS011;38052;45.944;13.624;2023-07-29T04:03:23;5.93;;;4.35;;
52041;SDS011;38052;45.944;13.624;2023-07-29T04:05:50;5.90;;;4.28;;
52041;SDS011;38052;45.944;13.624;2023-07-29T04:08:16;4.97;;;3.88;;
52041;SDS011;38052;45.944;13.624;2023-07-29T04:10:43;5.38;;;3.30;;
52041;SDS011;38052;45.944;13.624;2023-07-29T04:13:09;5.50;;;3.20;;
52041;SDS011;38052;45.944;13.624;2023-07-29T04:15:35;6.65;;;4.03;;
52041;SDS011;38052;45.944;13.624;2023-07-29T04:18:02;6.75;;;3.45;;
52041;SDS011;38052;45.944;13.624;2023-07-29T04:20:29;10.00;;;4.20;;
52041;SDS011;38052;45.944;13.624;2023-07-29T04:22:55;4.32;;;3.30;;
52041;SDS011;38052;45.944;13.624;2023-07-29T04:25:21;3.92;;;3.10;;
52041;SDS011;38052;45.944;13.624;2023-07-29T04:27:48;6.32;;;3.13;;
52041;SDS011;38052;45.944;13.624;2023-07-29T04:30:14;3.85;;;3.20;;
52041;SDS011;38052;45.944;13.624;2023-07-29T04:32:41;4.85;;;3.63;;
52041;SDS011;38052;45.944;13.624;2023-07-29T04:35:08;4.47;;;3.45;;
52041;SDS011;38052;45.944;13.624;2023-07-29T04:37:34;5.50;;;3.65;;
52041;SDS011;38052;45.944;13.624;2023-07-29T04:40:01;9.60;;;3.92;;
52041;SDS011;38052;45.944;13.624;2023-07-29T04:42:28;4.85;;;3.47;;
52041;SDS011;38052;45.944;13.624;2023-07-29T04:44:54;5.22;;;3.75;;
52041;SDS011;38052;45.944;13.624;2023-07-29T04:47:21;12.85;;;4.95;;
52041;SDS011;38052;45.944;13.624;2023-07-29T04:49:47;7.45;;;3.78;;
52041;SDS011;38052;45.944;13.624;2023-07-29T04:52:14;8.07;;;3.90;;
52041;SDS011;38052;45.944;13.624;2023-07-29T04:54:40;4.95;;;4.00;;
52041;SDS011;38052;45.944;13.624;2023-07-29T04:57:07;5.05;;;3.80;;
52041;SDS011;38052;45.944;13.624;2023-07-29T04:59:33;5.53;;;3.70;;
52041;SDS011;38052;45.944;13.624;2023-07-29T05:02:00;6.97;;;4.68;;
52041;SDS011;38052;45.944;13.624;2023-07-29T05:04:26;5.15;;;4.30;;
52041;SDS011;38052;45.944;13.624;2023-07-29T05:06:53;5.82;;;4.28;;
52041;SDS011;38052;45.944;13.624;2023-07-29T05:09:20;7.13;;;3.78;;
52041;SDS011;38052;45.944;13.624;2023-07-29T05:11:46;7.32;;;3.08;;
52041;SDS011;38052;45.944;13.624;2023-07-29T05:14:14;4.80;;;3.47;;
52041;SDS011;38052;45.944;13.624;2023-07-29T05:16:40;5.55;;;3.10;;
52041;SDS011;38052;45.944;13.624;2023-07-29T05:19:07;3.55;;;2.65;;
52041;SDS011;38052;45.944;13.624;2023-07-29T05:21:33;4.65;;;2.53;;
52041;SDS011;38052;45.944;13.624;2023-07-29T05:24:00;4.30;;;2.45;;
52041;SDS011;38052;45.944;13.624;2023-07-29T05:26:27;5.68;;;2.70;;
52041;SDS011;38052;45.944;13.624;2023-07-29T05:28:53;4.45;;;3.03;;
52041;SDS011;38052;45.944;13.624;2023-07-29T05:31:21;7.40;;;3.08;;
52041;SDS011;38052;45.944;13.624;2023-07-29T05:33:47;4.35;;;2.78;;
52041;SDS011;38052;45.944;13.624;2023-07-29T05:36:14;5.88;;;3.15;;
52041;SDS011;38052;45.944;13.624;2023-07-29T05:38:41;4.53;;;2.80;;
52041;SDS011;38052;45.944;13.624;2023-07-29T05:41:07;5.68;;;3.15;;
52041;SDS011;38052;45.944;13.624;2023-07-29T05:43:33;5.57;;;3.17;;
52041;SDS011;38052;45.944;13.624;2023-07-29T05:46:01;4.93;;;3.22;;
52041;SDS011;38052;45.944;13.624;2023-07-29T05:48:28;5.53;;;3.47;;
52041;SDS011;38052;45.944;13.624;2023-07-29T05:50:54;4.13;;;2.83;;
52041;SDS011;38052;45.944;13.624;2023-07-29T05:53:20;3.72;;;2.30;;
52041;SDS011;38052;45.944;13.624;2023-07-29T05:55:47;4.50;;;2.95;;
52041;SDS011;38052;45.944;13.624;2023-07-29T05:58:13;17.27;;;3.30;;
52041;SDS011;38052;45.944;13.624;2023-07-29T06:00:40;4.75;;;2.70;;
52041;SDS011;38052;45.944;13.624;2023-07-29T06:03:06;10.30;;;2.92;;
52041;SDS011;38052;45.944;13.624;2023-07-29T06:05:33;4.55;;;2.83;;
52041;SDS011;38052;45.944;13.624;2023-07-29T06:07:59;3.95;;;2.97;;
52041;SDS011;38052;45.944;13.624;2023-07-29T06:10:26;6.53;;;2.78;;
52041;SDS011;38052;45.944;13.624;2023-07-29T06:12:53;3.80;;;2.90;;
52041;SDS011;38052;45.944;13.624;2023-07-29T06:15:19;5.32;;;2.88;;
52041;SDS011;38052;45.944;13.624;2023-07-29T06:17:48;4.88;;;3.15;;
52041;SDS011;38052;45.944;13.624;2023-07-29T06:20:14;2.58;;;2.30;;
52041;SDS011;38052;45.944;13.624;2023-07-29T06:22:41;6.57;;;2.67;;
52041;SDS011;38052;45.944;13.624;2023-07-29T06:25:08;6.70;;;3.33;;
52041;SDS011;38052;45.944;13.624;2023-07-29T06:27:34;6.57;;;3.28;;
52041;SDS011;38052;45.944;13.624;2023-07-29T06:30:01;6.35;;;3.10;;
52041;SDS011;38052;45.944;13.624;2023-07-29T06:32:28;4.65;;;2.40;;
52041;SDS011;38052;45.944;13.624;2023-07-29T06:34:54;6.00;;;2.53;;
52041;SDS011;38052;45.944;13.624;2023-07-29T06:37:21;5.47;;;2.65;;
52041;SDS011;38052;45.944;13.624;2023-07-29T06:39:47;4.85;;;2.20;;
52041;SDS011;38052;45.944;13.624;2023-07-29T06:42:14;19.30;;;3.40;;
52041;SDS011;38052;45.944;13.624;2023-07-29T06:44:40;4.53;;;2.30;;
52041;SDS011;38052;45.944;13.624;2023-07-29T06:47:07;2.60;;;1.83;;
52041;SDS011;38052;45.944;13.624;2023-07-29T06:49:34;3.63;;;1.73;;
52041;SDS011;38052;45.944;13.624;2023-07-29T06:52:00;5.55;;;2.28;;
52041;SDS011;38052;45.944;13.624;2023-07-29T06:54:27;7.05;;;2.20;;
52041;SDS011;38052;45.944;13.624;2023-07-29T06:56:53;1.85;;;1.48;;
52041;SDS011;38052;45.944;13.624;2023-07-29T06:59:20;7.47;;;2.38;;
52041;SDS011;38052;45.944;13.624;2023-07-29T07:01:46;6.38;;;1.85;;
52041;SDS011;38052;45.944;13.624;2023-07-29T07:04:12;4.22;;;1.88;;
52041;SDS011;38052;45.944;13.624;2023-07-29T07:06:39;9.10;;;2.08;;
52041;SDS011;38052;45.944;13.624;2023-07-29T07:09:05;6.35;;;2.58;;
52041;SDS011;38052;45.944;13.624;2023-07-29T07:11:31;3.78;;;1.92;;
52041;SDS011;38052;45.944;13.624;2023-07-29T07:13:58;5.20;;;2.15;;
52041;SDS011;38052;45.944;13.624;2023-07-29T07:16:25;4.53;;;2.42;;
52041;SDS011;38052;45.944;13.624;2023-07-29T07:18:51;4.75;;;2.10;;
52041;SDS011;38052;45.944;13.624;2023-07-29T07:21:18;5.43;;;2.63;;
52041;SDS011;38052;45.944;13.624;2023-07-29T07:23:44;3.55;;;1.67;;
52041;SDS011;38052;45.944;13.624;2023-07-29T07:26:11;4.53;;;1.55;;
52041;SDS011;38052;45.944;13.624;2023-07-29T07:28:38;5.20;;;2.25;;
52041;SDS011;38052;45.944;13.624;2023-07-29T07:31:05;3.47;;;1.92;;
52041;SDS011;38052;45.944;13.624;2023-07-29T07:33:31;3.28;;;2.00;;
52041;SDS011;38052;45.944;13.624;2023-07-29T07:35:58;2.70;;;1.67;;
52041;SDS011;38052;45.944;13.624;2023-07-29T07:38:24;3.40;;;1.63;;
52041;SDS011;38052;45.944;13.624;2023-07-29T07:40:54;5.25;;;1.83;;
52041;SDS011;38052;45.944;13.624;2023-07-29T07:43:21;5.47;;;1.80;;
52041;SDS011;38052;45.944;13.624;2023-07-29T07:45:47;6.05;;;1.88;;
52041;SDS011;38052;45.944;13.624;2023-07-29T07:48:14;3.65;;;1.35;;
52041;SDS011;38052;45.944;13.624;2023-07-29T07:50:42;2.38;;;1.40;;
52041;SDS011;38052;45.944;13.624;2023-07-29T07:53:08;3.72;;;1.92;;
52041;SDS011;38052;45.944;13.624;2023-07-29T07:55:34;4.38;;;1.38;;
52041;SDS011;38052;45.944;13.624;2023-07-29T07:58:01;4.68;;;1.92;;
52041;SDS011;38052;45.944;13.624;2023-07-29T08:00:28;6.40;;;1.60;;
52041;SDS011;38052;45.944;13.624;2023-07-29T08:02:54;4.70;;;1.30;;
52041;SDS011;38052;45.944;13.624;2023-07-29T08:05:21;3.42;;;1.45;;
52041;SDS011;38052;45.944;13.624;2023-07-29T08:07:47;3.85;;;1.42;;
52041;SDS011;38052;45.944;13.624;2023-07-29T08:10:14;3.47;;;1.15;;
52041;SDS011;38052;45.944;13.624;2023-07-29T08:12:40;2.97;;;1.30;;
52041;SDS011;38052;45.944;13.624;2023-07-29T08:15:07;5.18;;;1.30;;
52041;SDS011;38052;45.944;13.624;2023-07-29T08:17:33;3.70;;;1.30;;
52041;SDS011;38052;45.944;13.624;2023-07-29T08:19:59;4.40;;;1.83;;
52041;SDS011;38052;45.944;13.624;2023-07-29T08:22:26;2.92;;;1.25;;
52041;SDS011;38052;45.944;13.624;2023-07-29T08:24:52;4.85;;;1.80;;
52041;SDS011;38052;45.944;13.624;2023-07-29T08:27:19;3.40;;;1.40;;
52041;SDS011;38052;45.944;13.624;2023-07-29T08:29:45;3.92;;;1.45;;
52041;SDS011;38052;45.944;13.624;2023-07-29T08:32:12;4.18;;;1.13;;
52041;SDS011;38052;45.944;13.624;2023-07-29T08:34:38;5.25;;;1.60;;
52041;SDS011;38052;45.944;13.624;2023-07-29T08:37:04;4.63;;;1.70;;
52041;SDS011;38052;45.944;13.624;2023-07-29T08:39:31;4.00;;;1.45;;
52041;SDS011;38052;45.944;13.624;2023-07-29T08:42:01;4.60;;;1.33;;
52041;SDS011;38052;45.944;13.624;2023-07-29T08:44:35;4.35;;;1.38;;
52041;SDS011;38052;45.944;13.624;2023-07-29T08:47:02;3.35;;;1.25;;
52041;SDS011;38052;45.944;13.624;2023-07-29T08:49:28;2.33;;;1.15;;
52041;SDS011;38052;45.944;13.624;2023-07-29T08:51:55;2.25;;;1.33;;
52041;SDS011;38052;45.944;13.624;2023-07-29T08:54:23;7.50;;;1.58;;
52041;SDS011;38052;45.944;13.624;2023-07-29T08:56:50;3.35;;;1.67;;
52041;SDS011;38052;45.944;13.624;2023-07-29T08:59:17;4.65;;;1.65;;
52041;SDS011;38052;45.944;13.624;2023-07-29T09:01:44;5.38;;;1.35;;
52041;SDS011;38052;45.944;13.624;2023-07-29T09:04:10;2.95;;;1.38;;
52041;SDS011;38052;45.944;13.624;2023-07-29T09:06:37;4.60;;;1.17;;
52041;SDS011;38052;45.944;13.624;2023-07-29T09:09:05;3.72;;;1.40;;
52041;SDS011;38052;45.944;13.624;2023-07-29T09:11:33;2.00;;;1.40;;
52041;SDS011;38052;45.944;13.624;2023-07-29T09:14:00;5.53;;;1.23;;
52041;SDS011;38052;45.944;13.624;2023-07-29T09:16:27;3.65;;;1.42;;
52041;SDS011;38052;45.944;13.624;2023-07-29T09:18:54;3.47;;;1.60;;
52041;SDS011;38052;45.944;13.624;2023-07-29T09:21:24;7.20;;;1.15;;
52041;SDS011;38052;45.944;13.624;2023-07-29T09:23:51;7.63;;;2.20;;
52041;SDS011;38052;45.944;13.624;2023-07-29T09:26:21;5.80;;;1.58;;
52041;SDS011;38052;45.944;13.624;2023-07-29T09:28:51;5.43;;;1.52;;
52041;SDS011;38052;45.944;13.624;2023-07-29T09:31:24;3.47;;;1.58;;
52041;SDS011;38052;45.944;13.624;2023-07-29T09:36:23;2.35;;;1.20;;
52041;SDS011;38052;45.944;13.624;2023-07-29T09:38:56;4.82;;;1.38;;
52041;SDS011;38052;45.944;13.624;2023-07-29T09:41:23;3.20;;;1.05;;
52041;SDS011;38052;45.944;13.624;2023-07-29T09:43:54;3.15;;;1.55;;
52041;SDS011;38052;45.944;13.624;2023-07-29T09:46:22;4.55;;;1.70;;
52041;SDS011;38052;45.944;13.624;2023-07-29T09:48:49;4.05;;;1.15;;
52041;SDS011;38052;45.944;13.624;2023-07-29T09:51:15;3.33;;;1.30;;
52041;SDS011;38052;45.944;13.624;2023-07-29T09:53:42;5.13;;;1.73;;
52041;SDS011;38052;45.944;13.624;2023-07-29T09:56:09;4.75;;;1.17;;
52041;SDS011;38052;45.944;13.624;2023-07-29T09:58:35;5.88;;;1.58;;
52041;SDS011;38052;45.944;13.624;2023-07-29T10:01:04;3.42;;;1.42;;
52041;SDS011;38052;45.944;13.624;2023-07-29T10:03:30;4.45;;;1.67;;
52041;SDS011;38052;45.944;13.624;2023-07-29T10:05:59;4.40;;;1.67;;
52041;SDS011;38052;45.944;13.624;2023-07-29T10:08:26;4.70;;;1.63;;
52041;SDS011;38052;45.944;13.624;2023-07-29T10:10:53;3.65;;;1.40;;
52041;SDS011;38052;45.944;13.624;2023-07-29T10:13:20;4.10;;;1.48;;
52041;SDS011;38052;45.944;13.624;2023-07-29T10:15:47;6.05;;;1.92;;
52041;SDS011;38052;45.944;13.624;2023-07-29T10:18:14;5.78;;;1.77;;
52041;SDS011;38052;45.944;13.624;2023-07-29T10:20:41;5.95;;;1.80;;
52041;SDS011;38052;45.944;13.624;2023-07-29T10:23:09;7.60;;;1.58;;
52041;SDS011;38052;45.944;13.624;2023-07-29T10:25:39;11.25;;;1.80;;
52041;SDS011;38052;45.944;13.624;2023-07-29T10:28:09;4.05;;;1.63;;
52041;SDS011;38052;45.944;13.624;2023-07-29T10:30:37;3.60;;;1.30;;
52041;SDS011;38052;45.944;13.624;2023-07-29T10:33:04;4.28;;;1.63;;
52041;SDS011;38052;45.944;13.624;2023-07-29T10:35:34;6.53;;;1.98;;
52041;SDS011;38052;45.944;13.624;2023-07-29T10:38:01;4.28;;;1.45;;
52041;SDS011;38052;45.944;13.624;2023-07-29T10:40:37;3.60;;;1.35;;
52041;SDS011;38052;45.944;13.624;2023-07-29T10:43:10;4.47;;;1.38;;
52041;SDS011;38052;45.944;13.624;2023-07-29T10:45:37;7.32;;;1.70;;
52041;SDS011;38052;45.944;13.624;2023-07-29T10:48:13;7.20;;;1.55;;
52041;SDS011;38052;45.944;13.624;2023-07-29T10:53:45;4.22;;;1.52;;
52041;SDS011;38052;45.944;13.624;2023-07-29T10:56:12;3.60;;;1.30;;
52041;SDS011;38052;45.944;13.624;2023-07-29T10:58:38;6.90;;;1.85;;
52041;SDS011;38052;45.944;13.624;2023-07-29T11:01:20;2.80;;;1.50;;
52041;SDS011;38052;45.944;13.624;2023-07-29T11:04:52;3.38;;;1.40;;
52041;SDS011;38052;45.944;13.624;2023-07-29T11:09:42;6.05;;;2.05;;
52041;SDS011;38052;45.944;13.624;2023-07-29T11:14:54;3.83;;;1.90;;
52041;SDS011;38052;45.944;13.624;2023-07-29T11:17:20;6.60;;;1.90;;
52041;SDS011;38052;45.944;13.624;2023-07-29T11:19:47;6.15;;;2.00;;
52041;SDS011;38052;45.944;13.624;2023-07-29T11:22:14;3.33;;;2.10;;
52041;SDS011;38052;45.944;13.624;2023-07-29T11:24:42;3.13;;;1.42;;
52041;SDS011;38052;45.944;13.624;2023-07-29T11:27:11;5.53;;;1.92;;
52041;SDS011;38052;45.944;13.624;2023-07-29T11:29:38;4.15;;;1.70;;
52041;SDS011;38052;45.944;13.624;2023-07-29T11:32:05;6.22;;;1.60;;
52041;SDS011;38052;45.944;13.624;2023-07-29T11:34:32;8.40;;;2.30;;
52041;SDS011;38052;45.944;13.624;2023-07-29T11:36:58;5.05;;;1.80;;
52041;SDS011;38052;45.944;13.624;2023-07-29T11:39:25;5.93;;;1.73;;
52041;SDS011;38052;45.944;13.624;2023-07-29T11:41:51;6.80;;;1.77;;
52041;SDS011;38052;45.944;13.624;2023-07-29T11:44:18;4.95;;;1.67;;
52041;SDS011;38052;45.944;13.624;2023-07-29T11:46:45;3.42;;;2.33;;
52041;SDS011;38052;45.944;13.624;2023-07-29T11:49:13;6.28;;;2.03;;
52041;SDS011;38052;45.944;13.624;2023-07-29T11:51:40;3.60;;;1.63;;
52041;SDS011;38052;45.944;13.624;2023-07-29T11:54:08;10.95;;;2.25;;
52041;SDS011;38052;45.944;13.624;2023-07-29T11:56:37;3.15;;;1.33;;
52041;SDS011;38052;45.944;13.624;2023-07-29T11:59:04;6.68;;;2.33;;
52041;SDS011;38052;45.944;13.624;2023-07-29T12:01:30;3.35;;;1.70;;
52041;SDS011;38052;45.944;13.624;2023-07-29T12:03:57;5.40;;;2.95;;
52041;SDS011;38052;45.944;13.624;2023-07-29T12:06:23;5.43;;;2.15;;
52041;SDS011;38052;45.944;13.624;2023-07-29T12:08:50;3.35;;;1.70;;
52041;SDS011;38052;45.944;13.624;2023-07-29T12:11:17;5.30;;;1.63;;
52041;SDS011;38052;45.944;13.624;2023-07-29T12:13:44;4.20;;;1.67;;
52041;SDS011;38052;45.944;13.624;2023-07-29T12:16:15;5.70;;;1.95;;
52041;SDS011;38052;45.944;13.624;2023-07-29T12:18:42;6.82;;;2.17;;
52041;SDS011;38052;45.944;13.624;2023-07-29T12:21:09;3.00;;;1.40;;
52041;SDS011;38052;45.944;13.624;2023-07-29T12:23:35;8.23;;;2.85;;
52041;SDS011;38052;45.944;13.624;2023-07-29T12:26:02;4.93;;;2.17;;
52041;SDS011;38052;45.944;13.624;2023-07-29T12:28:29;12.02;;;1.95;;
52041;SDS011;38052;45.944;13.624;2023-07-29T12:30:56;5.65;;;2.13;;
52041;SDS011;38052;45.944;13.624;2023-07-29T12:35:58;3.80;;;1.65;;
52041;SDS011;38052;45.944;13.624;2023-07-29T12:38:31;7.47;;;2.30;;
52041;SDS011;38052;45.944;13.624;2023-07-29T12:40:57;4.25;;;1.80;;
52041;SDS011;38052;45.944;13.624;2023-07-29T12:43:24;2.13;;;1.52;;
52041;SDS011;38052;45.944;13.624;2023-07-29T12:45:51;5.15;;;1.95;;
52041;SDS011;38052;45.944;13.624;2023-07-29T12:48:17;3.53;;;1.60;;
52041;SDS011;38052;45.944;13.624;2023-07-29T12:50:43;6.20;;;2.25;;
52041;SDS011;38052;45.944;13.624;2023-07-29T12:53:10;5.15;;;1.70;;
52041;SDS011;38052;45.944;13.624;2023-07-29T12:55:36;5.97;;;2.03;;
52041;SDS011;38052;45.944;13.624;2023-07-29T12:58:02;7.38;;;1.90;;
52041;SDS011;38052;45.944;13.624;2023-07-29T13:00:29;4.53;;;1.73;;
52041;SDS011;38052;45.944;13.624;2023-07-29T13:02:55;6.35;;;1.88;;
52041;SDS011;38052;45.944;13.624;2023-07-29T13:05:22;5.43;;;1.70;;
52041;SDS011;38052;45.944;13.624;2023-07-29T13:07:48;4.15;;;2.00;;
52041;SDS011;38052;45.944;13.624;2023-07-29T13:10:14;6.68;;;1.55;;
52041;SDS011;38052;45.944;13.624;2023-07-29T13:12:41;3.83;;;1.90;;
52041;SDS011;38052;45.944;13.624;2023-07-29T13:15:08;4.05;;;1.52;;
52041;SDS011;38052;45.944;13.624;2023-07-29T13:17:34;5.13;;;2.08;;
52041;SDS011;38052;45.944;13.624;2023-07-29T13:20:02;4.90;;;2.30;;
52041;SDS011;38052;45.944;13.624;2023-07-29T13:22:28;4.60;;;1.50;;
52041;SDS011;38052;45.944;13.624;2023-07-29T13:24:55;5.63;;;1.80;;
52041;SDS011;38052;45.944;13.624;2023-07-29T13:27:21;7.20;;;1.40;;
52041;SDS011;38052;45.944;13.624;2023-07-29T13:29:49;3.40;;;1.70;;
52041;SDS011;38052;45.944;13.624;2023-07-29T13:32:15;5.25;;;1.75;;
52041;SDS011;38052;45.944;13.624;2023-07-29T13:34:42;3.25;;;1.60;;
52041;SDS011;38052;45.944;13.624;2023-07-29T13:37:09;5.35;;;1.58;;
52041;SDS011;38052;45.944;13.624;2023-07-29T13:39:35;4.43;;;2.15;;
52041;SDS011;38052;45.944;13.624;2023-07-29T13:42:02;3.25;;;1.80;;
52041;SDS011;38052;45.944;13.624;2023-07-29T13:44:29;3.47;;;1.80;;
52041;SDS011;38052;45.944;13.624;2023-07-29T13:46:56;7.45;;;1.70;;
52041;SDS011;38052;45.944;13.624;2023-07-29T13:49:23;2.90;;;1.60;;
52041;SDS011;38052;45.944;13.624;2023-07-29T13:51:49;4.88;;;1.90;;
52041;SDS011;38052;45.944;13.624;2023-07-29T13:54:15;4.43;;;2.00;;
52041;SDS011;38052;45.944;13.624;2023-07-29T13:56:41;9.23;;;1.85;;
52041;SDS011;38052;45.944;13.624;2023-07-29T13:59:08;4.93;;;1.73;;
52041;SDS011;38052;45.944;13.624;2023-07-29T14:01:34;3.20;;;1.77;;
52041;SDS011;38052;45.944;13.624;2023-07-29T14:04:01;4.97;;;1.90;;
52041;SDS011;38052;45.944;13.624;2023-07-29T14:06:27;7.10;;;1.98;;
52041;SDS011;38052;45.944;13.624;2023-07-29T14:08:55;6.57;;;1.80;;
52041;SDS011;38052;45.944;13.624;2023-07-29T14:11:22;3.58;;;1.85;;
52041;SDS011;38052;45.944;13.624;2023-07-29T14:13:48;5.43;;;2.00;;
52041;SDS011;38052;45.944;13.624;2023-07-29T14:16:15;5.88;;;1.88;;
52041;SDS011;38052;45.944;13.624;2023-07-29T14:18:42;3.50;;;1.40;;
52041;SDS011;38052;45.944;13.624;2023-07-29T14:21:08;3.83;;;1.88;;
52041;SDS011;38052;45.944;13.624;2023-07-29T14:23:35;6.13;;;2.03;;
52041;SDS011;38052;45.944;13.624;2023-07-29T14:26:01;7.72;;;2.22;;
52041;SDS011;38052;45.944;13.624;2023-07-29T14:28:28;6.60;;;2.08;;
52041;SDS011;38052;45.944;13.624;2023-07-29T14:30:55;3.08;;;2.10;;
52041;SDS011;38052;45.944;13.624;2023-07-29T14:33:21;3.50;;;2.38;;
52041;SDS011;38052;45.944;13.624;2023-07-29T14:35:47;4.68;;;1.50;;
52041;SDS011;38052;45.944;13.624;2023-07-29T14:38:14;6.22;;;1.63;;
52041;SDS011;38052;45.944;13.624;2023-07-29T14:40:40;8.65;;;2.05;;
52041;SDS011;38052;45.944;13.624;2023-07-29T14:43:07;5.10;;;1.77;;
52041;SDS011;38052;45.944;13.624;2023-07-29T14:45:34;7.93;;;2.22;;